createdAt,value
2023-04-15T00:01:55.277Z,74.83
2023-04-15T00:32:51.470Z,75.05
2023-04-15T00:35:18.360Z,73.52
2023-04-15T00:37:46.338Z,73.83
2023-04-15T00:40:14.031Z,74.52
2023-04-15T00:42:41.172Z,74.73
2023-04-15T00:45:08.921Z,74.03
2023-04-15T00:48:34.858Z,73.31
2023-04-15T00:51:38.658Z,72.72
2023-04-15T00:54:06.024Z,72.24
2023-04-15T00:56:36.304Z,71.76
2023-04-15T00:59:03.086Z,73.01
2023-04-15T01:01:30.221Z,72.19
2023-04-15T01:04:26.260Z,71.64
2023-04-15T01:53:15.914Z,72.27
2023-04-15T01:55:54.921Z,71.79
2023-04-15T02:02:40.128Z,71.48
2023-04-15T02:05:07.111Z,71.35
2023-04-15T02:07:35.033Z,70.92
2023-04-15T02:10:01.904Z,71.19
2023-04-15T02:12:28.454Z,71.14
2023-04-15T02:14:55.891Z,72.15
2023-04-15T02:42:16.730Z,73.02
2023-04-15T02:44:43.626Z,73.58
2023-04-15T03:22:08.024Z,75.04
2023-04-15T03:24:35.594Z,74.06
2023-04-15T03:27:02.546Z,73.64
2023-04-15T03:29:29.116Z,72.78
2023-04-15T03:36:10.949Z,74.55
2023-04-15T03:38:37.536Z,74.23
2023-04-15T03:41:04.171Z,72.64
2023-04-15T03:43:30.888Z,71.74
2023-04-15T03:46:25.803Z,71.58
2023-04-15T03:48:56.854Z,71.20
2023-04-15T03:51:23.443Z,71.46
2023-04-15T03:53:53.878Z,71.31
2023-04-15T03:56:20.599Z,70.95
2023-04-15T03:58:47.183Z,70.97
2023-04-15T04:04:02.983Z,71.52
2023-04-15T04:06:29.709Z,71.29
2023-04-15T04:08:56.758Z,71.01
2023-04-15T04:11:23.360Z,70.66
2023-04-15T04:13:49.943Z,71.43
2023-04-15T04:20:34.618Z,71.36
2023-04-15T04:23:01.307Z,71.20
2023-04-15T04:25:28.225Z,70.64
2023-04-15T04:27:54.773Z,71.20
2023-04-15T04:30:21.395Z,72.03
2023-04-15T04:33:12.112Z,71.10
2023-04-15T04:35:41.313Z,72.47
2023-04-15T04:38:09.080Z,71.52
2023-04-15T04:40:36.929Z,71.40
2023-04-15T04:43:03.683Z,70.81
2023-04-15T04:46:04.093Z,70.79
2023-04-15T04:48:30.841Z,71.52
2023-04-15T04:50:57.804Z,71.52
2023-04-15T04:53:28.168Z,71.58
2023-04-15T05:00:24.285Z,71.37
2023-04-15T05:02:51.136Z,72.31
2023-04-15T05:05:17.822Z,72.61
2023-04-15T05:07:44.417Z,72.85
2023-04-15T05:10:11.467Z,72.53
2023-04-15T05:12:38.692Z,72.31
2023-04-15T05:15:06.715Z,72.12
2023-04-15T05:17:35.323Z,71.68
2023-04-15T05:20:03.305Z,71.72
2023-04-15T05:22:29.948Z,71.85
2023-04-15T05:25:03.990Z,71.93
2023-04-15T05:27:31.081Z,72.94
2023-04-15T05:29:57.676Z,72.81
2023-04-15T05:32:24.339Z,72.80
2023-04-15T05:34:51.366Z,73.32
2023-04-15T05:37:18.084Z,73.00
2023-04-15T05:39:44.645Z,73.20
2023-04-15T05:42:11.481Z,74.17
2023-04-15T05:44:38.146Z,72.79
2023-04-15T05:49:39.934Z,73.91
2023-04-15T05:52:06.568Z,73.31
2023-04-15T05:54:33.158Z,72.47
2023-04-15T05:56:59.740Z,72.33
2023-04-15T05:59:27.090Z,73.57
2023-04-15T06:02:38.174Z,72.80
2023-04-15T06:05:40.992Z,73.79
2023-04-15T06:08:08.387Z,75.16
2023-04-15T06:10:50.018Z,73.46
2023-04-15T06:13:26.163Z,73.89
2023-04-15T06:15:53.628Z,74.98
2023-04-15T06:18:41.912Z,74.25
2023-04-15T06:21:08.548Z,74.26
2023-04-15T06:23:36.516Z,75.00
2023-04-15T06:26:03.772Z,74.26
2023-04-15T06:28:30.544Z,72.90
2023-04-15T06:31:15.391Z,68.65
2023-04-15T06:33:41.980Z,66.08
2023-04-15T06:36:08.574Z,66.14
2023-04-15T06:38:35.448Z,66.55
2023-04-15T06:41:03.046Z,66.22
2023-04-15T06:43:30.079Z,65.35
2023-04-15T06:45:57.358Z,65.64
2023-04-15T06:48:24.428Z,65.73
2023-04-15T06:50:51.095Z,66.46
2023-04-15T06:53:17.704Z,66.74
2023-04-15T06:55:44.287Z,67.56
2023-04-15T06:58:10.877Z,66.98
2023-04-15T07:00:39.217Z,66.48
2023-04-15T07:03:05.919Z,66.81
2023-04-15T07:05:32.584Z,66.55
2023-04-15T07:07:59.102Z,65.72
2023-04-15T07:10:26.114Z,65.92
2023-04-15T07:13:08.882Z,65.59
2023-04-15T07:15:35.787Z,66.59
2023-04-15T07:18:20.940Z,66.76
2023-04-15T07:20:48.065Z,65.99
2023-04-15T07:23:14.698Z,65.37
2023-04-15T07:25:41.318Z,64.72
2023-04-15T07:28:07.948Z,64.50
2023-04-15T07:30:34.607Z,65.45
2023-04-15T07:33:02.821Z,65.28
2023-04-15T07:35:29.851Z,63.24
2023-04-15T07:37:56.471Z,63.90
2023-04-15T07:40:23.072Z,63.42
2023-04-15T07:42:50.040Z,63.68
2023-04-15T07:45:17.007Z,62.47
2023-04-15T07:47:43.732Z,62.55
2023-04-15T07:50:13.562Z,63.37
2023-04-15T07:52:40.293Z,63.54
2023-04-15T07:55:11.519Z,61.97
2023-04-15T07:57:38.325Z,61.75
2023-04-15T08:00:06.081Z,61.62
2023-04-15T08:02:32.821Z,62.04
2023-04-15T08:05:00.009Z,60.73
2023-04-15T08:07:27.392Z,59.54
2023-04-15T08:09:53.916Z,59.60
2023-04-15T08:12:20.681Z,59.59
2023-04-15T08:14:47.422Z,58.99
2023-04-15T08:17:21.772Z,59.43
2023-04-15T08:19:51.513Z,59.39
2023-04-15T08:22:19.257Z,58.23
2023-04-15T08:24:46.798Z,58.96
2023-04-15T08:27:13.631Z,59.86
2023-04-15T08:29:40.770Z,60.50
2023-04-15T08:32:07.854Z,59.62
2023-04-15T08:34:34.953Z,60.92
2023-04-15T08:37:01.667Z,57.75
2023-04-15T08:39:28.409Z,57.77
2023-04-15T08:41:55.091Z,58.27
2023-04-15T08:44:24.169Z,57.86
2023-04-15T08:46:52.527Z,59.04
2023-04-15T08:49:22.017Z,57.65
2023-04-15T08:51:49.642Z,56.94
2023-04-15T08:54:16.416Z,56.67
2023-04-15T08:56:43.322Z,57.55
2023-04-15T09:01:43.032Z,58.89
2023-04-15T09:04:12.594Z,58.14
2023-04-15T09:06:40.441Z,58.18
2023-04-15T09:09:07.194Z,56.60
2023-04-15T09:11:34.501Z,56.81
2023-04-15T09:14:01.067Z,57.85
2023-04-15T09:16:28.370Z,58.76
2023-04-15T09:18:55.082Z,64.50
2023-04-15T09:21:23.621Z,64.28
2023-04-15T09:23:58.846Z,64.08
2023-04-15T09:26:36.575Z,63.60
2023-04-15T09:29:07.650Z,65.39
2023-04-15T09:31:34.338Z,65.44
2023-04-15T09:34:01.677Z,65.19
2023-04-15T09:39:03.965Z,63.69
2023-04-15T09:41:30.589Z,62.94
2023-04-15T09:43:57.495Z,63.32
2023-04-15T09:46:42.518Z,61.26
2023-04-15T09:49:10.709Z,61.63
2023-04-15T09:51:38.044Z,62.38
2023-04-15T09:54:05.169Z,61.53
2023-04-15T09:56:41.598Z,60.67
2023-04-15T09:59:09.199Z,61.26
2023-04-15T10:01:37.279Z,61.01
2023-04-15T10:04:05.176Z,59.75
2023-04-15T10:06:32.556Z,58.92
2023-04-15T10:08:59.400Z,59.47
2023-04-15T10:11:30.390Z,60.44
2023-04-15T10:13:58.612Z,60.43
2023-04-15T10:16:28.813Z,59.35
2023-04-15T10:18:56.560Z,60.04
2023-04-15T10:21:23.697Z,59.22
2023-04-15T10:23:51.387Z,58.20
2023-04-15T10:26:18.394Z,59.83
2023-04-15T10:28:47.170Z,58.09
2023-04-15T10:31:17.526Z,57.87
2023-04-15T10:33:45.178Z,58.34
2023-04-15T10:36:12.658Z,59.56
2023-04-15T10:38:45.411Z,59.68
2023-04-15T10:41:23.687Z,61.05
2023-04-15T10:43:59.495Z,59.79
2023-04-15T10:46:38.122Z,58.77
2023-04-15T10:49:09.246Z,59.56
2023-04-15T10:54:32.604Z,59.55
2023-04-15T10:57:02.913Z,61.39
2023-04-15T10:59:30.216Z,60.46
2023-04-15T11:02:01.234Z,59.37
2023-04-15T11:04:52.960Z,61.18
2023-04-15T11:07:47.274Z,60.40
2023-04-15T11:10:26.246Z,60.60
2023-04-15T11:13:13.269Z,60.40
2023-04-15T11:15:42.257Z,61.54
2023-04-15T11:18:16.479Z,61.04
2023-04-15T11:20:50.831Z,61.26
2023-04-15T11:23:28.834Z,61.22
2023-04-15T11:25:57.943Z,60.04
2023-04-15T11:28:31.833Z,60.25
2023-04-15T11:31:08.707Z,60.65
2023-04-15T11:33:38.113Z,61.48
2023-04-15T11:36:04.996Z,60.98
2023-04-15T11:38:31.948Z,60.50
2023-04-15T11:41:03.820Z,60.58
2023-04-15T11:43:32.556Z,59.22
2023-04-15T11:46:02.296Z,60.50
2023-04-15T11:48:34.262Z,61.65
2023-04-15T11:51:08.386Z,61.95
2023-04-15T11:53:46.483Z,60.84
2023-04-15T11:59:23.810Z,61.06
2023-04-15T12:01:52.957Z,60.90
2023-04-15T12:04:26.326Z,60.65
2023-04-15T12:06:53.145Z,60.95
2023-04-15T12:09:20.487Z,60.37
2023-04-15T12:11:52.957Z,60.79
2023-04-15T12:14:33.577Z,60.27
2023-04-15T12:17:03.040Z,61.51
2023-04-15T12:19:38.305Z,61.00
2023-04-15T12:22:15.916Z,62.57
2023-04-15T12:24:47.065Z,61.94
2023-04-15T12:27:17.198Z,59.34
2023-04-15T12:29:44.616Z,59.55
2023-04-15T12:32:12.422Z,59.36
2023-04-15T12:34:41.256Z,60.25
2023-04-15T12:37:10.565Z,60.49
2023-04-15T12:39:41.143Z,59.72
2023-04-15T12:42:08.344Z,59.37
2023-04-15T12:44:40.172Z,61.20
2023-04-15T12:47:11.644Z,63.32
2023-04-15T12:49:38.326Z,62.15
2023-04-15T12:52:05.208Z,62.00
2023-04-15T12:54:32.592Z,61.23
2023-04-15T12:57:00.038Z,60.03
2023-04-15T12:59:26.825Z,59.93
2023-04-15T13:01:53.691Z,58.85
2023-04-15T13:04:22.000Z,59.42
2023-04-15T13:06:49.487Z,60.07
2023-04-15T13:09:16.479Z,59.69
2023-04-15T13:11:43.157Z,59.30
2023-04-15T13:14:11.999Z,59.76
2023-04-15T13:16:38.905Z,59.26
2023-04-15T13:19:05.573Z,58.58
2023-04-15T13:21:36.251Z,57.58
2023-04-15T13:24:04.950Z,56.97
2023-04-15T13:26:35.064Z,56.71
2023-04-15T13:29:02.793Z,57.29
2023-04-15T13:31:29.365Z,58.50
2023-04-15T13:33:57.548Z,59.59
2023-04-15T13:36:24.483Z,59.25
2023-04-15T13:38:52.342Z,58.19
2023-04-15T13:41:20.066Z,58.84
2023-04-15T13:43:47.270Z,58.54
2023-04-15T13:46:14.815Z,59.42
2023-04-15T13:48:41.933Z,59.61
2023-04-15T13:51:08.621Z,60.09
2023-04-15T13:53:38.785Z,59.12
2023-04-15T13:56:10.063Z,58.99
2023-04-15T13:58:37.761Z,57.24
2023-04-15T14:01:06.309Z,57.27
2023-04-15T14:03:35.356Z,55.12
2023-04-15T14:06:02.398Z,54.95
2023-04-15T14:08:31.897Z,55.53
2023-04-15T14:11:06.282Z,55.46
2023-04-15T14:13:32.882Z,54.01
2023-04-15T14:15:59.765Z,54.90
2023-04-15T14:18:29.074Z,54.99
2023-04-15T14:20:55.896Z,55.81
2023-04-15T14:23:23.733Z,56.20
2023-04-15T14:25:50.889Z,57.03
2023-04-15T14:28:17.520Z,59.05
2023-04-15T14:33:19.870Z,60.87
2023-04-15T14:35:47.239Z,60.25
2023-04-15T14:38:14.283Z,60.48
2023-04-15T14:40:42.324Z,61.02
2023-04-15T14:43:08.941Z,60.82
2023-04-15T14:48:12.697Z,62.33
2023-04-15T14:50:40.649Z,62.79
2023-04-15T14:53:07.279Z,62.43
2023-04-15T14:55:33.881Z,62.06
2023-04-15T14:58:02.236Z,61.82
2023-04-15T15:00:28.780Z,60.56
2023-04-15T15:02:55.549Z,59.32
2023-04-15T15:05:44.104Z,59.31
2023-04-15T15:08:11.133Z,59.68
2023-04-15T15:10:48.275Z,60.46
2023-04-15T15:13:23.431Z,60.47
2023-04-15T15:24:39.481Z,61.48
2023-04-15T15:27:08.994Z,62.54
2023-04-15T15:29:35.739Z,62.56
2023-04-15T15:32:02.314Z,63.27
2023-04-15T15:37:11.583Z,62.94
2023-04-15T15:39:46.773Z,62.34
2023-04-15T15:42:13.343Z,63.59
2023-04-15T15:44:39.939Z,63.58
2023-04-15T15:47:06.952Z,63.20
2023-04-15T15:52:08.979Z,63.00
2023-04-15T15:54:37.848Z,64.85
2023-04-15T15:57:04.576Z,65.40
2023-04-15T15:59:33.202Z,64.96
2023-04-15T16:02:11.568Z,65.62
2023-04-15T16:04:39.294Z,64.77
2023-04-15T16:07:06.490Z,64.52
2023-04-15T16:09:33.561Z,64.77
2023-04-15T16:12:04.040Z,65.84
2023-04-15T16:14:30.660Z,67.44
2023-04-15T16:17:00.364Z,67.26
2023-04-15T16:19:26.980Z,68.63
2023-04-15T16:21:54.133Z,69.80
2023-04-15T16:24:25.888Z,70.15
2023-04-15T16:26:52.563Z,72.77
2023-04-15T16:29:19.229Z,73.20
2023-04-15T16:31:47.471Z,73.20
2023-04-15T16:34:15.874Z,71.50
2023-04-15T16:36:42.767Z,69.94
2023-04-15T16:39:09.499Z,70.19
2023-04-15T16:41:36.440Z,69.97
2023-04-15T16:44:03.396Z,69.68
2023-04-15T16:46:30.982Z,70.17
2023-04-15T16:48:57.814Z,70.20
2023-04-15T16:51:24.432Z,69.85
2023-04-15T16:53:51.140Z,69.37
2023-04-15T16:56:17.818Z,69.99
2023-04-15T16:58:44.406Z,68.82
2023-04-15T17:01:11.135Z,68.70
2023-04-15T17:03:38.792Z,68.11
2023-04-15T17:06:05.689Z,67.81
2023-04-15T17:08:32.391Z,68.04
2023-04-15T17:10:59.023Z,68.17
2023-04-15T17:13:26.436Z,68.13
2023-04-15T17:15:55.140Z,67.72
2023-04-15T17:18:22.343Z,67.40
2023-04-15T17:20:49.051Z,67.31
2023-04-15T17:23:16.161Z,67.15
2023-04-15T17:25:45.843Z,66.69
2023-04-15T17:28:12.475Z,67.01
2023-04-15T17:30:39.297Z,67.01
2023-04-15T17:33:56.099Z,66.75
2023-04-15T17:35:53.274Z,66.38
2023-04-15T17:38:20.563Z,66.31
2023-04-15T17:40:47.147Z,65.91
2023-04-15T17:43:13.693Z,65.80
2023-04-15T17:45:40.397Z,65.89
2023-04-15T17:48:07.198Z,65.78
2023-04-15T17:50:34.119Z,65.96
2023-04-15T17:53:00.776Z,65.67
2023-04-15T17:55:27.418Z,65.64
2023-04-15T17:57:54.214Z,65.87
2023-04-15T18:00:20.966Z,66.76
2023-04-15T18:02:48.758Z,67.23
2023-04-15T18:05:15.798Z,67.99
2023-04-15T18:07:42.493Z,69.18
2023-04-15T18:10:09.484Z,69.33
2023-04-15T18:12:36.015Z,68.60
2023-04-15T18:15:02.686Z,68.71
2023-04-15T18:17:29.554Z,68.47
2023-04-15T18:19:56.302Z,68.10
2023-04-15T18:22:22.872Z,67.63
2023-04-15T18:24:52.429Z,67.61
2023-04-15T18:27:19.150Z,67.07
2023-04-15T18:29:45.763Z,66.95
2023-04-15T18:32:12.405Z,66.80
2023-04-15T18:34:39.363Z,66.96
2023-04-15T18:37:06.414Z,66.79
2023-04-15T18:39:33.114Z,66.66
2023-04-15T18:41:59.785Z,66.72
2023-04-15T18:44:26.485Z,66.89
2023-04-15T18:46:53.124Z,67.18
2023-04-15T18:49:19.887Z,66.85
2023-04-15T18:51:46.508Z,67.14
2023-04-15T18:54:13.218Z,67.22
2023-04-15T18:56:40.100Z,67.34
2023-04-15T18:59:20.792Z,67.52
2023-04-15T19:01:53.448Z,68.23
2023-04-15T19:04:20.463Z,68.69
2023-04-15T19:06:47.698Z,68.59
2023-04-15T19:09:15.756Z,68.46
2023-04-15T19:11:43.720Z,69.02
2023-04-15T19:14:11.013Z,70.15
2023-04-15T19:16:37.808Z,70.59
2023-04-15T19:19:06.601Z,70.03
2023-04-15T19:21:34.010Z,70.36
2023-04-15T19:24:00.883Z,70.08
2023-04-15T19:26:27.614Z,70.33
2023-04-15T19:28:56.491Z,70.44
2023-04-15T19:31:23.226Z,70.05
2023-04-15T19:33:50.000Z,70.39
2023-04-15T19:36:18.178Z,71.09
2023-04-15T19:38:44.832Z,71.23
2023-04-15T19:41:11.422Z,71.03
2023-04-15T19:43:38.176Z,71.01
2023-04-15T19:46:04.768Z,70.87
2023-04-15T19:48:31.340Z,71.00
2023-04-15T19:50:58.114Z,70.53
2023-04-15T19:53:25.862Z,70.70
2023-04-15T19:55:52.452Z,71.26
2023-04-15T19:58:19.037Z,70.94
2023-04-15T20:00:45.626Z,71.09
2023-04-15T20:03:13.797Z,70.56
2023-04-15T20:05:40.531Z,70.50
2023-04-15T20:08:07.177Z,71.27
2023-04-15T20:10:33.921Z,71.57
2023-04-15T20:13:00.746Z,71.42
2023-04-15T20:15:27.585Z,71.10
2023-04-15T20:17:57.560Z,70.60
2023-04-15T20:42:35.068Z,71.51
2023-04-15T20:45:02.312Z,71.41
2023-04-15T20:47:31.547Z,71.03
2023-04-15T20:49:58.321Z,71.13
2023-04-15T20:52:24.889Z,71.02
2023-04-15T20:54:51.620Z,70.94
2023-04-15T20:57:18.346Z,70.70
2023-04-15T20:59:44.985Z,70.81
2023-04-15T21:02:11.889Z,71.03
2023-04-15T21:04:38.909Z,71.00
2023-04-15T21:07:05.643Z,70.73
2023-04-15T21:09:33.369Z,70.71
2023-04-15T21:12:01.971Z,70.64
2023-04-15T21:14:29.273Z,70.26
2023-04-15T21:16:58.074Z,70.00
2023-04-15T21:19:24.701Z,69.52
2023-04-15T21:21:52.396Z,69.37
2023-04-15T21:24:19.019Z,69.18
2023-04-15T21:26:45.591Z,68.97
2023-04-15T21:29:12.501Z,69.06
2023-04-15T21:31:40.225Z,69.41
2023-04-15T21:34:07.115Z,69.68
2023-04-15T21:36:33.968Z,70.00
2023-04-15T21:39:00.882Z,69.71
2023-04-15T21:41:28.228Z,69.67
2023-04-15T21:43:54.880Z,70.61
2023-04-15T21:46:25.356Z,70.25
2023-04-15T21:48:53.898Z,69.70
2023-04-15T21:51:20.899Z,69.14
2023-04-15T21:53:47.738Z,69.01
2023-04-15T21:56:14.390Z,69.09
2023-04-15T21:58:41.041Z,69.17
2023-04-15T22:01:07.949Z,69.66
2023-04-15T22:03:35.292Z,70.46
2023-04-15T22:06:05.157Z,71.15
2023-04-15T22:08:41.287Z,71.27
2023-04-15T22:11:27.864Z,71.39
2023-04-15T22:13:56.680Z,71.39
2023-04-15T22:16:24.506Z,71.26
2023-04-15T22:19:10.305Z,71.61
2023-04-15T22:21:36.889Z,71.76
2023-04-15T22:24:39.176Z,71.90
2023-04-15T22:26:50.645Z,71.54
2023-04-15T22:29:18.389Z,71.49
2023-04-15T22:31:45.063Z,71.49
2023-04-15T22:34:11.992Z,71.74
2023-04-15T22:36:38.685Z,71.60
2023-04-15T22:39:05.940Z,71.27
2023-04-15T22:47:45.718Z,72.25
2023-04-15T22:50:12.742Z,71.84
2023-04-15T22:52:39.346Z,71.72
2023-04-15T22:55:06.902Z,71.72
2023-04-15T22:57:33.730Z,72.47
2023-04-15T23:00:00.650Z,73.09
2023-04-15T23:02:27.653Z,72.55
2023-04-15T23:04:54.513Z,72.42
2023-04-15T23:07:21.173Z,72.13
2023-04-15T23:09:47.813Z,71.51
2023-04-15T23:12:14.861Z,71.47
2023-04-15T23:14:45.219Z,71.39
2023-04-15T23:17:11.905Z,71.30
2023-04-15T23:19:41.312Z,71.27
2023-04-15T23:22:10.728Z,71.51
2023-04-15T23:24:37.618Z,71.44
2023-04-15T23:27:04.168Z,71.32
2023-04-15T23:29:30.764Z,71.04
2023-04-15T23:31:57.602Z,70.95
2023-04-15T23:34:24.159Z,71.21
2023-04-15T23:36:50.761Z,71.26
2023-04-15T23:39:17.501Z,71.91
2023-04-15T23:41:44.077Z,71.96
2023-04-15T23:44:10.755Z,71.48
2023-04-15T23:46:40.652Z,71.47
2023-04-15T23:49:07.492Z,71.96
2023-04-15T23:51:34.294Z,72.16
2023-04-15T23:54:00.856Z,73.23
2023-04-15T23:56:27.457Z,73.11
2023-04-15T23:59:00.483Z,72.77
